createdAt,value
2023-03-22T00:00:57.764Z,100404.72
2023-03-22T00:03:25.838Z,100402.78
2023-03-22T00:05:58.337Z,100403.78
2023-03-22T00:08:27.599Z,100403.66
2023-03-22T00:10:55.481Z,100401.09
2023-03-22T00:13:23.392Z,100398.94
2023-03-22T00:15:51.424Z,100410.53
2023-03-22T00:18:20.053Z,100399.13
2023-03-22T00:20:49.306Z,100399.03
2023-03-22T00:23:18.040Z,100395.56
2023-03-22T00:25:48.322Z,100391.91
2023-03-22T00:28:17.256Z,100385.09
2023-03-22T00:30:53.160Z,100380.94
2023-03-22T00:33:21.147Z,100387.66
2023-03-22T00:35:50.520Z,100393.50
2023-03-22T00:38:18.661Z,100363.25
2023-03-22T00:40:47.943Z,100391.81
2023-03-22T00:43:16.806Z,100380.28
2023-03-22T00:45:45.168Z,100364.94
2023-03-22T00:48:13.531Z,100366.44
2023-03-22T00:50:42.025Z,100369.69
2023-03-22T00:53:09.977Z,100370.50
2023-03-22T00:55:39.031Z,100358.72
2023-03-22T00:58:08.418Z,100363.66
2023-03-22T01:00:36.796Z,100355.75
2023-03-22T01:03:05.341Z,100350.16
2023-03-22T01:05:34.961Z,100354.44
2023-03-22T01:08:06.351Z,100352.59
2023-03-22T01:10:34.272Z,100349.72
2023-03-22T01:13:02.183Z,100336.75
2023-03-22T01:15:31.680Z,100349.41
2023-03-22T01:17:59.720Z,100341.06
2023-03-22T01:20:27.877Z,100339.09
2023-03-22T01:22:55.808Z,100339.50
2023-03-22T01:25:23.946Z,100297.28
2023-03-22T01:27:51.892Z,100334.28
2023-03-22T01:30:20.204Z,100334.19
2023-03-22T01:32:49.476Z,100336.03
2023-03-22T01:35:18.884Z,100187.50
2023-03-22T01:37:47.235Z,100332.59
2023-03-22T01:40:17.074Z,100325.31
2023-03-22T01:42:46.642Z,100324.28
2023-03-22T01:45:40.768Z,100311.16
2023-03-22T01:48:16.395Z,100323.13
2023-03-22T01:50:49.472Z,100316.84
2023-03-22T01:53:23.555Z,100321.19
2023-03-22T01:55:52.660Z,100301.25
2023-03-22T01:58:27.131Z,100317.63
2023-03-22T02:01:00.005Z,100306.97
2023-03-22T02:03:52.317Z,100294.91
2023-03-22T02:06:21.819Z,100305.28
2023-03-22T02:08:57.882Z,100307.88
2023-03-22T02:11:31.893Z,100298.25
2023-03-22T02:14:27.180Z,100281.06
2023-03-22T02:17:30.879Z,100293.16
2023-03-22T02:20:39.942Z,100292.38
2023-03-22T02:23:34.128Z,100288.88
2023-03-22T02:26:49.475Z,100293.31
2023-03-22T02:29:26.370Z,100244.84
2023-03-22T02:32:24.349Z,100295.91
2023-03-22T02:35:29.976Z,100284.19
2023-03-22T02:38:48.435Z,100277.16
2023-03-22T02:41:27.832Z,100257.19
2023-03-22T02:44:06.723Z,100281.38
2023-03-22T02:46:47.019Z,100287.31
2023-03-22T02:49:23.043Z,100278.63
2023-03-22T02:51:57.948Z,100292.59
2023-03-22T02:54:31.062Z,100266.47
2023-03-22T02:57:07.030Z,100259.44
2023-03-22T02:59:39.264Z,100287.06
2023-03-22T03:02:10.638Z,100284.31
2023-03-22T03:04:43.961Z,100287.72
2023-03-22T03:07:15.438Z,100286.69
2023-03-22T03:09:44.642Z,100267.78
2023-03-22T03:12:20.476Z,100284.97
2023-03-22T03:14:49.136Z,100258.16
2023-03-22T03:17:28.847Z,100270.66
2023-03-22T03:20:08.079Z,100253.41
2023-03-22T03:22:50.041Z,100262.84
2023-03-22T03:25:25.503Z,100272.44
2023-03-22T03:28:05.805Z,100268.16
2023-03-22T03:30:40.797Z,100246.75
2023-03-22T03:33:13.870Z,100242.31
2023-03-22T03:35:48.623Z,100271.56
2023-03-22T03:38:21.132Z,100270.53
2023-03-22T03:40:53.691Z,100261.91
2023-03-22T03:43:25.442Z,100228.19
2023-03-22T03:45:53.833Z,100255.56
2023-03-22T03:48:24.453Z,100229.38
2023-03-22T03:50:55.179Z,100247.91
2023-03-22T03:53:23.434Z,100242.66
2023-03-22T03:55:51.547Z,100206.22
2023-03-22T03:58:19.633Z,100228.00
2023-03-22T04:00:51.255Z,100236.50
2023-03-22T04:03:41.480Z,100227.88
2023-03-22T04:06:15.206Z,100235.56
2023-03-22T04:08:53.408Z,100232.78
2023-03-22T04:11:24.488Z,100229.47
2023-03-22T04:13:56.611Z,100221.06
2023-03-22T04:16:26.353Z,100217.44
2023-03-22T04:18:54.630Z,100222.69
2023-03-22T04:21:22.782Z,100218.81
2023-03-22T04:23:58.640Z,100204.94
2023-03-22T04:26:28.769Z,100226.00
2023-03-22T04:29:10.873Z,100226.97
2023-03-22T04:31:45.267Z,100210.34
2023-03-22T04:34:20.298Z,100219.66
2023-03-22T04:36:54.992Z,100204.28
2023-03-22T04:39:38.160Z,100209.50
2023-03-22T04:42:24.320Z,100223.50
2023-03-22T04:45:03.480Z,100224.31
2023-03-22T04:47:33.273Z,100211.16
2023-03-22T04:50:02.908Z,100216.34
2023-03-22T04:52:35.966Z,100162.09
2023-03-22T04:55:07.444Z,100218.03
2023-03-22T04:57:35.841Z,100186.03
2023-03-22T05:00:08.377Z,100223.13
2023-03-22T05:02:41.133Z,100218.66
2023-03-22T05:05:14.810Z,100206.53
2023-03-22T05:07:42.773Z,100220.47
2023-03-22T05:10:12.005Z,100219.50
2023-03-22T05:12:41.417Z,100195.00
2023-03-22T05:15:29.628Z,100208.13
2023-03-22T05:18:00.525Z,100194.34
2023-03-22T05:20:28.495Z,100186.50
2023-03-22T05:23:13.448Z,100210.44
2023-03-22T05:25:45.054Z,100209.59
2023-03-22T05:28:14.188Z,100197.53
2023-03-22T05:30:46.725Z,100164.09
2023-03-22T05:33:35.772Z,100207.28
2023-03-22T05:36:04.958Z,100194.41
2023-03-22T05:38:39.548Z,100197.06
2023-03-22T05:41:08.311Z,100208.19
2023-03-22T05:43:37.106Z,100197.88
2023-03-22T05:46:06.853Z,100196.72
2023-03-22T05:48:59.823Z,100189.81
2023-03-22T05:51:28.103Z,100186.94
2023-03-22T05:53:56.241Z,100179.09
2023-03-22T05:56:28.656Z,100167.94
2023-03-22T05:59:05.308Z,100189.38
2023-03-22T06:01:34.131Z,100190.28
2023-03-22T06:04:16.072Z,100173.50
2023-03-22T06:07:02.878Z,100132.75
2023-03-22T06:09:53.631Z,100181.13
2023-03-22T06:12:27.219Z,100185.47
2023-03-22T06:15:16.638Z,100154.16
2023-03-22T06:18:03.168Z,100154.88
2023-03-22T06:20:36.792Z,100176.44
2023-03-22T06:23:10.800Z,100181.47
2023-03-22T06:25:40.639Z,100179.44
2023-03-22T06:28:12.028Z,100161.09
2023-03-22T06:30:45.886Z,100171.84
2023-03-22T06:33:19.550Z,100158.59
2023-03-22T06:35:53.987Z,100178.03
2023-03-22T06:38:30.351Z,100187.38
2023-03-22T06:40:58.748Z,100177.34
2023-03-22T06:43:27.041Z,100182.13
2023-03-22T06:46:02.537Z,100135.31
2023-03-22T06:48:36.938Z,100155.50
2023-03-22T06:51:11.496Z,100136.16
2023-03-22T06:53:39.520Z,100154.88
2023-03-22T06:56:08.325Z,100166.66
2023-03-22T06:58:47.754Z,100163.63
2023-03-22T07:01:15.831Z,100168.94
2023-03-22T07:03:44.281Z,100161.84
2023-03-22T07:06:16.947Z,100167.84
2023-03-22T07:08:50.806Z,100171.69
2023-03-22T07:11:23.468Z,100170.72
2023-03-22T07:13:58.394Z,100170.78
2023-03-22T07:16:29.650Z,100170.78
2023-03-22T07:19:00.132Z,100172.16
2023-03-22T07:21:29.816Z,100170.97
2023-03-22T07:24:01.698Z,100167.03
2023-03-22T07:26:31.705Z,100180.22
2023-03-22T07:29:01.140Z,100181.44
2023-03-22T07:31:35.610Z,100181.03
2023-03-22T07:34:06.789Z,100166.53
2023-03-22T07:36:47.982Z,100164.28
2023-03-22T07:39:16.151Z,100155.88
2023-03-22T07:41:46.726Z,100143.44
2023-03-22T07:44:39.499Z,100145.53
2023-03-22T07:47:40.384Z,100142.19
2023-03-22T07:50:28.992Z,100145.31
2023-03-22T07:53:01.518Z,100153.28
2023-03-22T07:55:29.521Z,100157.72
2023-03-22T07:57:57.590Z,100148.50
2023-03-22T08:00:28.278Z,100140.97
2023-03-22T08:03:22.321Z,100133.25
2023-03-22T08:06:03.099Z,100129.63
2023-03-22T08:08:32.429Z,100137.00
2023-03-22T08:11:00.637Z,100145.28
2023-03-22T08:13:28.990Z,100124.88
2023-03-22T08:15:57.291Z,100139.97
2023-03-22T08:18:26.044Z,100139.00
2023-03-22T08:20:56.239Z,100112.56
2023-03-22T08:23:38.515Z,100118.25
2023-03-22T08:26:23.260Z,100105.94
2023-03-22T08:28:53.722Z,100127.97
2023-03-22T08:31:22.445Z,100107.78
2023-03-22T08:33:51.310Z,100115.09
2023-03-22T08:36:22.842Z,100115.22
2023-03-22T08:38:58.837Z,100104.44
2023-03-22T08:41:40.523Z,100113.28
2023-03-22T08:44:08.584Z,100100.06
2023-03-22T08:46:37.039Z,100072.28
2023-03-22T08:49:05.096Z,100096.50
2023-03-22T08:51:40.458Z,100077.06
2023-03-22T08:54:17.762Z,100063.81
2023-03-22T08:56:55.692Z,100078.94
2023-03-22T08:59:45.267Z,100084.53
2023-03-22T09:02:32.153Z,100069.72
2023-03-22T09:05:00.645Z,100081.69
2023-03-22T09:07:28.921Z,100065.28
2023-03-22T09:10:08.112Z,100073.91
2023-03-22T09:12:40.238Z,100083.66
2023-03-22T09:15:09.366Z,100090.53
2023-03-22T09:17:39.776Z,100069.00
2023-03-22T09:20:12.793Z,100079.06
2023-03-22T09:22:43.970Z,100048.16
2023-03-22T09:25:14.231Z,100068.16
2023-03-22T09:27:46.089Z,100053.31
2023-03-22T09:30:14.648Z,100034.88
2023-03-22T09:32:42.828Z,100054.13
2023-03-22T09:35:13.147Z,100051.00
2023-03-22T09:37:53.382Z,100038.84
2023-03-22T09:40:22.294Z,100051.22
2023-03-22T09:42:55.604Z,100046.44
2023-03-22T09:45:29.948Z,100043.22
2023-03-22T09:48:00.484Z,100045.22
2023-03-22T09:50:32.285Z,100028.44
2023-03-22T09:53:01.481Z,100040.56
2023-03-22T09:55:37.814Z,100041.09
2023-03-22T09:58:15.453Z,99998.63
2023-03-22T10:00:47.440Z,100026.19
2023-03-22T10:03:26.855Z,100026.78
2023-03-22T10:06:02.885Z,100021.22
2023-03-22T10:08:45.449Z,100016.34
2023-03-22T10:11:22.203Z,99989.66
2023-03-22T10:13:58.765Z,100019.56
2023-03-22T10:16:32.784Z,99992.34
2023-03-22T10:19:08.324Z,100005.63
2023-03-22T10:21:37.231Z,99994.25
2023-03-22T10:24:11.419Z,99981.59
2023-03-22T10:26:41.493Z,100001.47
2023-03-22T10:29:14.728Z,100000.22
2023-03-22T10:31:44.785Z,99997.63
2023-03-22T10:34:19.280Z,99955.56
2023-03-22T10:36:48.488Z,99959.00
2023-03-22T10:39:28.146Z,99954.59
2023-03-22T10:41:58.213Z,99995.72
2023-03-22T10:44:30.662Z,99991.44
2023-03-22T10:47:08.063Z,99979.88
2023-03-22T10:49:40.927Z,99997.13
2023-03-22T10:52:21.152Z,100013.31
2023-03-22T10:54:49.196Z,100004.22
2023-03-22T10:57:17.436Z,100010.41
2023-03-22T10:59:48.917Z,99994.75
2023-03-22T11:02:22.813Z,100003.31
2023-03-22T11:04:52.576Z,100000.84
2023-03-22T11:07:33.958Z,99991.47
2023-03-22T11:10:28.471Z,99970.47
2023-03-22T11:13:11.811Z,99970.25
2023-03-22T11:15:43.476Z,99990.16
2023-03-22T11:18:15.801Z,99976.06
2023-03-22T11:20:54.493Z,99957.03
2023-03-22T11:23:23.539Z,99992.31
2023-03-22T11:25:53.213Z,99989.13
2023-03-22T11:28:23.188Z,99999.44
2023-03-22T11:31:05.423Z,99980.16
2023-03-22T11:33:33.959Z,100000.53
2023-03-22T11:36:06.596Z,99987.38
2023-03-22T11:38:38.570Z,99945.75
2023-03-22T11:41:10.027Z,99959.72
2023-03-22T11:43:42.206Z,99990.88
2023-03-22T11:46:12.372Z,100001.00
2023-03-22T11:48:43.310Z,100003.28
2023-03-22T11:51:13.484Z,99977.19
2023-03-22T11:53:44.506Z,100000.00
2023-03-22T11:56:17.924Z,99998.66
2023-03-22T11:58:59.975Z,100004.03
2023-03-22T12:01:36.991Z,99972.19
2023-03-22T12:04:10.149Z,99980.03
2023-03-22T12:06:41.490Z,99966.78
2023-03-22T12:09:22.750Z,99961.91
2023-03-22T12:11:54.094Z,99984.59
2023-03-22T12:14:26.758Z,99994.75
2023-03-22T12:16:59.548Z,99995.28
2023-03-22T12:19:46.310Z,99957.59
2023-03-22T12:22:16.798Z,99985.84
2023-03-22T12:24:45.242Z,99955.97
2023-03-22T12:27:18.766Z,99993.09
2023-03-22T12:29:51.559Z,99952.00
2023-03-22T12:32:25.904Z,99988.53
2023-03-22T12:34:57.944Z,99966.41
2023-03-22T12:37:36.406Z,99962.91
2023-03-22T12:40:09.496Z,99972.16
2023-03-22T12:42:51.177Z,99979.38
2023-03-22T12:45:24.882Z,99972.28
2023-03-22T12:47:58.375Z,99979.72
2023-03-22T12:50:32.734Z,99969.63
2023-03-22T12:53:02.378Z,99970.22
2023-03-22T12:55:33.298Z,99970.81
2023-03-22T12:58:03.362Z,99975.56
2023-03-22T13:00:37.697Z,99980.94
2023-03-22T13:03:20.162Z,99966.25
2023-03-22T13:05:50.752Z,99956.13
2023-03-22T13:08:21.528Z,99952.84
2023-03-22T13:11:01.454Z,99941.28
2023-03-22T13:13:46.736Z,99928.91
2023-03-22T13:16:19.422Z,99899.53
2023-03-22T13:19:18.814Z,99945.13
2023-03-22T13:21:49.823Z,99949.13
2023-03-22T13:24:22.937Z,99911.97
2023-03-22T13:26:54.454Z,99900.56
2023-03-22T13:29:25.293Z,99903.59
2023-03-22T13:31:58.977Z,99909.44
2023-03-22T13:34:39.711Z,99939.59
2023-03-22T13:37:17.562Z,99938.91
2023-03-22T13:39:51.916Z,99937.31
2023-03-22T13:42:23.109Z,99904.66
2023-03-22T13:44:58.533Z,99941.59
2023-03-22T13:47:37.007Z,99947.84
2023-03-22T13:50:17.087Z,99932.38
2023-03-22T13:52:53.868Z,99929.06
2023-03-22T13:55:42.311Z,99946.81
2023-03-22T13:58:12.836Z,99938.75
2023-03-22T14:00:44.683Z,99919.53
2023-03-22T14:03:29.344Z,99900.06
2023-03-22T14:06:19.955Z,99963.41
2023-03-22T14:08:53.169Z,99949.75
2023-03-22T14:11:24.839Z,99959.78
2023-03-22T14:13:57.094Z,99970.56
2023-03-22T14:16:36.594Z,99968.53
2023-03-22T14:19:06.948Z,99932.44
2023-03-22T14:21:39.567Z,99951.47
